sensor_id;sensor_type;location;lat;lon;timestamp;P1;durP1;ratioP1;P2;durP2;ratioP2
13002;SDS011;6566;57.702;11.984;2022-09-09T00:00:20;2.33;;;0.90;;
13002;SDS011;6566;57.702;11.984;2022-09-09T00:05:40;1.05;;;0.60;;
13002;SDS011;6566;57.702;11.984;2022-09-09T00:08:07;1.55;;;0.60;;
13002;SDS011;6566;57.702;11.984;2022-09-09T00:10:37;2.88;;;0.85;;
13002;SDS011;6566;57.702;11.984;2022-09-09T00:21:13;2.00;;;0.82;;
13002;SDS011;6566;57.702;11.984;2022-09-09T00:23:49;1.55;;;0.65;;
13002;SDS011;6566;57.702;11.984;2022-09-09T00:26:25;1.08;;;0.70;;
13002;SDS011;6566;57.702;11.984;2022-09-09T00:31:30;1.00;;;0.60;;
13002;SDS011;6566;57.702;11.984;2022-09-09T00:34:12;3.08;;;0.70;;
13002;SDS011;6566;57.702;11.984;2022-09-09T00:36:40;1.38;;;0.70;;
13002;SDS011;6566;57.702;11.984;2022-09-09T00:39:09;1.58;;;0.90;;
13002;SDS011;6566;57.702;11.984;2022-09-09T00:44:32;1.52;;;0.55;;
13002;SDS011;6566;57.702;11.984;2022-09-09T00:52:37;2.15;;;0.60;;
13002;SDS011;6566;57.702;11.984;2022-09-09T00:57:52;0.93;;;0.60;;
13002;SDS011;6566;57.702;11.984;2022-09-09T01:00:22;1.27;;;0.70;;
13002;SDS011;6566;57.702;11.984;2022-09-09T01:10:56;1.23;;;0.65;;
13002;SDS011;6566;57.702;11.984;2022-09-09T01:13:28;2.97;;;0.80;;
13002;SDS011;6566;57.702;11.984;2022-09-09T01:16:15;1.65;;;0.70;;
13002;SDS011;6566;57.702;11.984;2022-09-09T01:18:46;0.98;;;0.60;;
13002;SDS011;6566;57.702;11.984;2022-09-09T01:21:20;1.50;;;0.63;;
13002;SDS011;6566;57.702;11.984;2022-09-09T01:28:49;2.10;;;0.57;;
13002;SDS011;6566;57.702;11.984;2022-09-09T01:31:20;2.42;;;0.60;;
13002;SDS011;6566;57.702;11.984;2022-09-09T01:33:48;0.60;;;0.60;;
13002;SDS011;6566;57.702;11.984;2022-09-09T01:38:52;2.10;;;0.70;;
13002;SDS011;6566;57.702;11.984;2022-09-09T01:41:19;1.58;;;1.00;;
13002;SDS011;6566;57.702;11.984;2022-09-09T01:43:44;1.65;;;0.65;;
13002;SDS011;6566;57.702;11.984;2022-09-09T01:46:11;0.60;;;0.60;;
13002;SDS011;6566;57.702;11.984;2022-09-09T01:48:38;2.60;;;0.60;;
13002;SDS011;6566;57.702;11.984;2022-09-09T01:51:04;2.53;;;0.68;;
13002;SDS011;6566;57.702;11.984;2022-09-09T01:53:31;2.38;;;0.73;;
13002;SDS011;6566;57.702;11.984;2022-09-09T01:56:05;1.80;;;0.68;;
13002;SDS011;6566;57.702;11.984;2022-09-09T02:03:57;1.20;;;0.68;;
13002;SDS011;6566;57.702;11.984;2022-09-09T02:06:56;1.23;;;0.88;;
13002;SDS011;6566;57.702;11.984;2022-09-09T02:09:16;0.68;;;0.65;;
13002;SDS011;6566;57.702;11.984;2022-09-09T02:11:45;1.25;;;0.80;;
13002;SDS011;6566;57.702;11.984;2022-09-09T02:14:13;2.33;;;0.77;;
13002;SDS011;6566;57.702;11.984;2022-09-09T02:19:16;0.60;;;0.60;;
13002;SDS011;6566;57.702;11.984;2022-09-09T02:21:47;0.88;;;0.65;;
13002;SDS011;6566;57.702;11.984;2022-09-09T02:24:12;1.10;;;0.65;;
13002;SDS011;6566;57.702;11.984;2022-09-09T02:26:41;0.80;;;0.70;;
13002;SDS011;6566;57.702;11.984;2022-09-09T02:29:15;1.15;;;0.73;;
13002;SDS011;6566;57.702;11.984;2022-09-09T02:31:42;0.90;;;0.80;;
13002;SDS011;6566;57.702;11.984;2022-09-09T02:34:10;3.33;;;1.10;;
13002;SDS011;6566;57.702;11.984;2022-09-09T02:36:38;1.42;;;0.68;;
13002;SDS011;6566;57.702;11.984;2022-09-09T02:39:07;1.77;;;0.60;;
13002;SDS011;6566;57.702;11.984;2022-09-09T02:41:34;1.13;;;0.93;;
13002;SDS011;6566;57.702;11.984;2022-09-09T02:44:01;1.92;;;0.90;;
13002;SDS011;6566;57.702;11.984;2022-09-09T02:46:36;2.58;;;0.73;;
13002;SDS011;6566;57.702;11.984;2022-09-09T02:49:09;1.35;;;0.77;;
13002;SDS011;6566;57.702;11.984;2022-09-09T02:54:33;0.90;;;0.80;;
13002;SDS011;6566;57.702;11.984;2022-09-09T02:57:11;1.15;;;0.90;;
13002;SDS011;6566;57.702;11.984;2022-09-09T02:59:38;0.90;;;0.80;;
13002;SDS011;6566;57.702;11.984;2022-09-09T03:02:04;2.88;;;0.70;;
13002;SDS011;6566;57.702;11.984;2022-09-09T03:04:30;1.60;;;0.70;;
13002;SDS011;6566;57.702;11.984;2022-09-09T03:06:57;0.80;;;0.80;;
13002;SDS011;6566;57.702;11.984;2022-09-09T03:09:24;3.15;;;0.88;;
13002;SDS011;6566;57.702;11.984;2022-09-09T03:11:51;0.80;;;0.80;;
13002;SDS011;6566;57.702;11.984;2022-09-09T03:14:18;2.28;;;0.80;;
13002;SDS011;6566;57.702;11.984;2022-09-09T03:16:47;1.25;;;0.75;;
13002;SDS011;6566;57.702;11.984;2022-09-09T03:19:14;1.20;;;0.98;;
13002;SDS011;6566;57.702;11.984;2022-09-09T03:21:41;2.50;;;1.10;;
13002;SDS011;6566;57.702;11.984;2022-09-09T03:24:08;3.03;;;0.90;;
13002;SDS011;6566;57.702;11.984;2022-09-09T03:26:35;1.08;;;0.75;;
13002;SDS011;6566;57.702;11.984;2022-09-09T03:29:04;1.58;;;0.80;;
13002;SDS011;6566;57.702;11.984;2022-09-09T03:31:33;1.63;;;0.85;;
13002;SDS011;6566;57.702;11.984;2022-09-09T03:33:58;1.60;;;0.80;;
13002;SDS011;6566;57.702;11.984;2022-09-09T03:36:28;0.90;;;0.63;;
13002;SDS011;6566;57.702;11.984;2022-09-09T03:38:55;2.25;;;0.90;;
13002;SDS011;6566;57.702;11.984;2022-09-09T03:41:23;2.05;;;0.88;;
13002;SDS011;6566;57.702;11.984;2022-09-09T03:43:53;3.22;;;0.80;;
13002;SDS011;6566;57.702;11.984;2022-09-09T03:46:20;2.47;;;0.82;;
13002;SDS011;6566;57.702;11.984;2022-09-09T03:48:57;2.47;;;1.00;;
13002;SDS011;6566;57.702;11.984;2022-09-09T03:51:23;2.63;;;0.90;;
13002;SDS011;6566;57.702;11.984;2022-09-09T03:53:51;1.23;;;0.63;;
13002;SDS011;6566;57.702;11.984;2022-09-09T03:56:21;2.50;;;0.85;;
13002;SDS011;6566;57.702;11.984;2022-09-09T03:58:48;2.38;;;1.00;;
13002;SDS011;6566;57.702;11.984;2022-09-09T04:01:14;1.70;;;1.00;;
13002;SDS011;6566;57.702;11.984;2022-09-09T04:03:42;1.50;;;0.80;;
13002;SDS011;6566;57.702;11.984;2022-09-09T04:06:11;1.05;;;0.80;;
13002;SDS011;6566;57.702;11.984;2022-09-09T04:08:39;5.75;;;1.85;;
13002;SDS011;6566;57.702;11.984;2022-09-09T04:11:06;1.38;;;0.90;;
13002;SDS011;6566;57.702;11.984;2022-09-09T04:13:33;1.85;;;0.90;;
13002;SDS011;6566;57.702;11.984;2022-09-09T04:15:59;2.58;;;1.05;;
13002;SDS011;6566;57.702;11.984;2022-09-09T04:18:26;2.50;;;1.00;;
13002;SDS011;6566;57.702;11.984;2022-09-09T04:20:54;2.00;;;0.90;;
13002;SDS011;6566;57.702;11.984;2022-09-09T04:23:26;1.73;;;1.00;;
13002;SDS011;6566;57.702;11.984;2022-09-09T04:25:55;1.15;;;1.00;;
13002;SDS011;6566;57.702;11.984;2022-09-09T04:28:23;1.15;;;0.73;;
13002;SDS011;6566;57.702;11.984;2022-09-09T04:30:50;2.08;;;0.82;;
13002;SDS011;6566;57.702;11.984;2022-09-09T04:33:16;1.17;;;0.90;;
13002;SDS011;6566;57.702;11.984;2022-09-09T04:35:47;2.42;;;0.95;;
13002;SDS011;6566;57.702;11.984;2022-09-09T04:38:14;2.67;;;1.10;;
13002;SDS011;6566;57.702;11.984;2022-09-09T04:40:43;1.52;;;0.98;;
13002;SDS011;6566;57.702;11.984;2022-09-09T04:43:10;1.92;;;0.88;;
13002;SDS011;6566;57.702;11.984;2022-09-09T04:45:37;2.17;;;1.10;;
13002;SDS011;6566;57.702;11.984;2022-09-09T04:48:03;1.10;;;0.80;;
13002;SDS011;6566;57.702;11.984;2022-09-09T04:50:30;1.65;;;0.90;;
13002;SDS011;6566;57.702;11.984;2022-09-09T04:52:59;2.95;;;1.10;;
13002;SDS011;6566;57.702;11.984;2022-09-09T04:55:25;1.65;;;0.90;;
13002;SDS011;6566;57.702;11.984;2022-09-09T04:57:52;3.45;;;0.90;;
13002;SDS011;6566;57.702;11.984;2022-09-09T05:00:19;1.77;;;0.75;;
13002;SDS011;6566;57.702;11.984;2022-09-09T05:02:45;3.85;;;1.20;;
13002;SDS011;6566;57.702;11.984;2022-09-09T05:05:12;2.85;;;0.82;;
13002;SDS011;6566;57.702;11.984;2022-09-09T05:07:39;2.55;;;1.00;;
13002;SDS011;6566;57.702;11.984;2022-09-09T05:10:05;3.42;;;1.13;;
13002;SDS011;6566;57.702;11.984;2022-09-09T05:12:32;2.10;;;1.20;;
13002;SDS011;6566;57.702;11.984;2022-09-09T05:14:59;2.20;;;1.20;;
13002;SDS011;6566;57.702;11.984;2022-09-09T05:17:26;3.53;;;1.02;;
13002;SDS011;6566;57.702;11.984;2022-09-09T05:19:54;2.47;;;0.93;;
13002;SDS011;6566;57.702;11.984;2022-09-09T05:22:21;1.48;;;1.05;;
13002;SDS011;6566;57.702;11.984;2022-09-09T05:24:49;2.78;;;1.20;;
13002;SDS011;6566;57.702;11.984;2022-09-09T05:27:17;3.10;;;1.17;;
13002;SDS011;6566;57.702;11.984;2022-09-09T05:29:45;1.85;;;1.10;;
13002;SDS011;6566;57.702;11.984;2022-09-09T05:32:12;4.13;;;1.02;;
13002;SDS011;6566;57.702;11.984;2022-09-09T05:34:41;3.90;;;1.10;;
13002;SDS011;6566;57.702;11.984;2022-09-09T05:37:08;3.88;;;1.02;;
13002;SDS011;6566;57.702;11.984;2022-09-09T05:39:34;2.92;;;1.23;;
13002;SDS011;6566;57.702;11.984;2022-09-09T05:42:04;2.80;;;1.05;;
13002;SDS011;6566;57.702;11.984;2022-09-09T05:44:31;2.38;;;1.00;;
13002;SDS011;6566;57.702;11.984;2022-09-09T05:46:57;3.67;;;1.52;;
13002;SDS011;6566;57.702;11.984;2022-09-09T05:49:25;5.93;;;1.38;;
13002;SDS011;6566;57.702;11.984;2022-09-09T05:51:52;3.63;;;1.10;;
13002;SDS011;6566;57.702;11.984;2022-09-09T05:54:19;5.13;;;1.35;;
13002;SDS011;6566;57.702;11.984;2022-09-09T05:56:45;2.20;;;1.25;;
13002;SDS011;6566;57.702;11.984;2022-09-09T05:59:13;3.55;;;1.50;;
13002;SDS011;6566;57.702;11.984;2022-09-09T06:01:41;4.68;;;1.60;;
13002;SDS011;6566;57.702;11.984;2022-09-09T06:04:08;4.20;;;1.58;;
13002;SDS011;6566;57.702;11.984;2022-09-09T06:06:35;5.95;;;1.63;;
13002;SDS011;6566;57.702;11.984;2022-09-09T06:09:02;7.30;;;1.77;;
13002;SDS011;6566;57.702;11.984;2022-09-09T06:11:30;3.95;;;1.55;;
13002;SDS011;6566;57.702;11.984;2022-09-09T06:14:02;4.22;;;1.58;;
13002;SDS011;6566;57.702;11.984;2022-09-09T06:16:30;4.93;;;1.65;;
13002;SDS011;6566;57.702;11.984;2022-09-09T06:19:00;9.27;;;1.80;;
13002;SDS011;6566;57.702;11.984;2022-09-09T06:21:28;6.50;;;1.98;;
13002;SDS011;6566;57.702;11.984;2022-09-09T06:23:55;5.63;;;2.25;;
13002;SDS011;6566;57.702;11.984;2022-09-09T06:26:23;6.72;;;2.00;;
13002;SDS011;6566;57.702;11.984;2022-09-09T06:28:52;5.22;;;2.15;;
13002;SDS011;6566;57.702;11.984;2022-09-09T06:31:20;5.30;;;2.35;;
13002;SDS011;6566;57.702;11.984;2022-09-09T06:33:48;5.43;;;2.70;;
13002;SDS011;6566;57.702;11.984;2022-09-09T06:36:22;6.45;;;2.55;;
13002;SDS011;6566;57.702;11.984;2022-09-09T06:38:49;9.43;;;3.53;;
13002;SDS011;6566;57.702;11.984;2022-09-09T06:41:17;6.22;;;2.83;;
13002;SDS011;6566;57.702;11.984;2022-09-09T06:43:46;11.90;;;3.20;;
13002;SDS011;6566;57.702;11.984;2022-09-09T06:46:12;6.18;;;3.03;;
13002;SDS011;6566;57.702;11.984;2022-09-09T06:48:40;6.28;;;2.97;;
13002;SDS011;6566;57.702;11.984;2022-09-09T06:51:09;5.40;;;3.53;;
13002;SDS011;6566;57.702;11.984;2022-09-09T06:53:36;6.88;;;3.65;;
13002;SDS011;6566;57.702;11.984;2022-09-09T06:56:25;5.07;;;3.65;;
13002;SDS011;6566;57.702;11.984;2022-09-09T06:58:55;5.53;;;2.90;;
13002;SDS011;6566;57.702;11.984;2022-09-09T07:01:25;4.45;;;3.30;;
13002;SDS011;6566;57.702;11.984;2022-09-09T07:03:54;5.95;;;3.03;;
13002;SDS011;6566;57.702;11.984;2022-09-09T07:06:23;4.18;;;3.25;;
13002;SDS011;6566;57.702;11.984;2022-09-09T07:08:51;5.25;;;3.08;;
13002;SDS011;6566;57.702;11.984;2022-09-09T07:11:18;8.65;;;2.97;;
13002;SDS011;6566;57.702;11.984;2022-09-09T07:13:46;6.70;;;2.75;;
13002;SDS011;6566;57.702;11.984;2022-09-09T07:16:13;6.55;;;2.83;;
13002;SDS011;6566;57.702;11.984;2022-09-09T07:18:40;4.10;;;2.35;;
13002;SDS011;6566;57.702;11.984;2022-09-09T07:21:07;6.00;;;2.33;;
13002;SDS011;6566;57.702;11.984;2022-09-09T07:23:34;6.05;;;2.53;;
13002;SDS011;6566;57.702;11.984;2022-09-09T07:26:02;5.07;;;2.22;;
13002;SDS011;6566;57.702;11.984;2022-09-09T07:28:29;5.80;;;2.15;;
13002;SDS011;6566;57.702;11.984;2022-09-09T07:30:58;3.88;;;1.73;;
13002;SDS011;6566;57.702;11.984;2022-09-09T07:33:24;6.63;;;2.15;;
13002;SDS011;6566;57.702;11.984;2022-09-09T07:35:51;6.70;;;1.70;;
13002;SDS011;6566;57.702;11.984;2022-09-09T07:38:19;4.00;;;1.90;;
13002;SDS011;6566;57.702;11.984;2022-09-09T07:40:45;4.30;;;2.00;;
13002;SDS011;6566;57.702;11.984;2022-09-09T07:43:13;8.30;;;1.90;;
13002;SDS011;6566;57.702;11.984;2022-09-09T07:45:40;3.67;;;1.75;;
13002;SDS011;6566;57.702;11.984;2022-09-09T07:48:08;3.15;;;1.55;;
13002;SDS011;6566;57.702;11.984;2022-09-09T07:50:35;4.78;;;1.52;;
13002;SDS011;6566;57.702;11.984;2022-09-09T07:53:01;3.95;;;1.45;;
13002;SDS011;6566;57.702;11.984;2022-09-09T07:55:29;6.30;;;1.30;;
13002;SDS011;6566;57.702;11.984;2022-09-09T07:57:56;3.55;;;1.75;;
13002;SDS011;6566;57.702;11.984;2022-09-09T08:00:23;9.02;;;1.92;;
13002;SDS011;6566;57.702;11.984;2022-09-09T08:02:50;3.80;;;1.63;;
13002;SDS011;6566;57.702;11.984;2022-09-09T08:05:16;7.60;;;1.73;;
13002;SDS011;6566;57.702;11.984;2022-09-09T08:07:44;7.00;;;1.40;;
13002;SDS011;6566;57.702;11.984;2022-09-09T08:10:12;1.67;;;1.33;;
13002;SDS011;6566;57.702;11.984;2022-09-09T08:12:40;4.00;;;1.30;;
13002;SDS011;6566;57.702;11.984;2022-09-09T08:15:07;4.60;;;1.40;;
13002;SDS011;6566;57.702;11.984;2022-09-09T08:17:32;5.43;;;1.40;;
13002;SDS011;6566;57.702;11.984;2022-09-09T08:19:59;5.20;;;1.50;;
13002;SDS011;6566;57.702;11.984;2022-09-09T08:22:29;3.67;;;1.52;;
13002;SDS011;6566;57.702;11.984;2022-09-09T08:24:56;5.25;;;1.33;;
13002;SDS011;6566;57.702;11.984;2022-09-09T08:27:22;10.95;;;1.85;;
13002;SDS011;6566;57.702;11.984;2022-09-09T08:29:49;2.42;;;1.50;;
13002;SDS011;6566;57.702;11.984;2022-09-09T08:32:14;4.65;;;1.80;;
13002;SDS011;6566;57.702;11.984;2022-09-09T08:34:40;6.15;;;1.70;;
13002;SDS011;6566;57.702;11.984;2022-09-09T08:37:07;7.85;;;2.00;;
13002;SDS011;6566;57.702;11.984;2022-09-09T08:39:33;3.20;;;1.47;;
13002;SDS011;6566;57.702;11.984;2022-09-09T08:42:15;6.93;;;1.63;;
13002;SDS011;6566;57.702;11.984;2022-09-09T08:53:12;6.80;;;1.63;;
13002;SDS011;6566;57.702;11.984;2022-09-09T08:56:21;3.05;;;1.40;;
13002;SDS011;6566;57.702;11.984;2022-09-09T08:58:29;6.97;;;1.40;;
13002;SDS011;6566;57.702;11.984;2022-09-09T09:11:53;5.10;;;1.85;;
13002;SDS011;6566;57.702;11.984;2022-09-09T09:14:23;4.22;;;1.42;;
13002;SDS011;6566;57.702;11.984;2022-09-09T09:17:00;4.40;;;1.70;;
13002;SDS011;6566;57.702;11.984;2022-09-09T09:19:29;3.80;;;1.58;;
13002;SDS011;6566;57.702;11.984;2022-09-09T09:22:04;4.88;;;1.70;;
13002;SDS011;6566;57.702;11.984;2022-09-09T09:30:17;7.80;;;1.38;;
13002;SDS011;6566;57.702;11.984;2022-09-09T09:32:51;7.05;;;1.60;;
13002;SDS011;6566;57.702;11.984;2022-09-09T09:35:18;5.43;;;1.58;;
13002;SDS011;6566;57.702;11.984;2022-09-09T09:37:45;5.18;;;1.60;;
13002;SDS011;6566;57.702;11.984;2022-09-09T09:40:17;3.40;;;1.65;;
13002;SDS011;6566;57.702;11.984;2022-09-09T09:43:00;3.15;;;1.77;;
13002;SDS011;6566;57.702;11.984;2022-09-09T09:45:48;5.80;;;1.52;;
13002;SDS011;6566;57.702;11.984;2022-09-09T09:48:14;3.63;;;1.48;;
13002;SDS011;6566;57.702;11.984;2022-09-09T09:51:03;8.00;;;1.50;;
13002;SDS011;6566;57.702;11.984;2022-09-09T09:53:32;3.00;;;1.40;;
13002;SDS011;6566;57.702;11.984;2022-09-09T09:55:59;3.60;;;1.63;;
13002;SDS011;6566;57.702;11.984;2022-09-09T09:58:26;2.80;;;1.73;;
13002;SDS011;6566;57.702;11.984;2022-09-09T10:00:55;2.65;;;1.50;;
13002;SDS011;6566;57.702;11.984;2022-09-09T10:03:31;5.63;;;1.60;;
13002;SDS011;6566;57.702;11.984;2022-09-09T10:05:58;5.05;;;1.98;;
13002;SDS011;6566;57.702;11.984;2022-09-09T10:08:25;4.18;;;1.90;;
13002;SDS011;6566;57.702;11.984;2022-09-09T10:16:27;4.63;;;1.85;;
13002;SDS011;6566;57.702;11.984;2022-09-09T10:19:15;1.80;;;1.63;;
13002;SDS011;6566;57.702;11.984;2022-09-09T10:40:46;1.88;;;1.50;;
13002;SDS011;6566;57.702;11.984;2022-09-09T10:45:52;5.22;;;2.00;;
13002;SDS011;6566;57.702;11.984;2022-09-09T10:48:39;6.75;;;2.10;;
13002;SDS011;6566;57.702;11.984;2022-09-09T10:51:20;5.38;;;1.83;;
13002;SDS011;6566;57.702;11.984;2022-09-09T10:56:31;4.35;;;1.80;;
13002;SDS011;6566;57.702;11.984;2022-09-09T10:59:07;5.82;;;2.05;;
13002;SDS011;6566;57.702;11.984;2022-09-09T11:01:41;4.80;;;1.77;;
13002;SDS011;6566;57.702;11.984;2022-09-09T11:04:42;4.57;;;1.85;;
13002;SDS011;6566;57.702;11.984;2022-09-09T11:07:05;4.07;;;1.75;;
13002;SDS011;6566;57.702;11.984;2022-09-09T11:09:32;3.72;;;1.88;;
13002;SDS011;6566;57.702;11.984;2022-09-09T11:12:03;5.05;;;1.95;;
13002;SDS011;6566;57.702;11.984;2022-09-09T11:17:03;4.57;;;1.75;;
13002;SDS011;6566;57.702;11.984;2022-09-09T11:19:42;5.03;;;1.95;;
13002;SDS011;6566;57.702;11.984;2022-09-09T11:27:37;6.38;;;2.03;;
13002;SDS011;6566;57.702;11.984;2022-09-09T11:30:22;4.47;;;2.40;;
13002;SDS011;6566;57.702;11.984;2022-09-09T11:41:05;4.13;;;2.13;;
13002;SDS011;6566;57.702;11.984;2022-09-09T11:44:08;6.72;;;2.50;;
13002;SDS011;6566;57.702;11.984;2022-09-09T11:46:32;4.00;;;1.88;;
13002;SDS011;6566;57.702;11.984;2022-09-09T11:49:04;2.45;;;1.77;;
13002;SDS011;6566;57.702;11.984;2022-09-09T11:51:31;5.50;;;2.00;;
13002;SDS011;6566;57.702;11.984;2022-09-09T11:54:25;5.35;;;1.95;;
13002;SDS011;6566;57.702;11.984;2022-09-09T11:56:56;3.65;;;1.70;;
13002;SDS011;6566;57.702;11.984;2022-09-09T11:59:32;3.63;;;1.90;;
13002;SDS011;6566;57.702;11.984;2022-09-09T12:02:11;4.75;;;2.00;;
13002;SDS011;6566;57.702;11.984;2022-09-09T12:04:41;2.25;;;1.80;;
13002;SDS011;6566;57.702;11.984;2022-09-09T12:07:52;6.55;;;2.25;;
13002;SDS011;6566;57.702;11.984;2022-09-09T12:10:05;3.58;;;2.22;;
13002;SDS011;6566;57.702;11.984;2022-09-09T12:12:45;3.55;;;2.03;;
13002;SDS011;6566;57.702;11.984;2022-09-09T12:17:51;5.25;;;1.88;;
13002;SDS011;6566;57.702;11.984;2022-09-09T12:20:36;7.07;;;2.17;;
13002;SDS011;6566;57.702;11.984;2022-09-09T12:33:51;4.10;;;1.92;;
13002;SDS011;6566;57.702;11.984;2022-09-09T12:36:19;3.72;;;1.95;;
13002;SDS011;6566;57.702;11.984;2022-09-09T12:38:57;4.78;;;2.15;;
13002;SDS011;6566;57.702;11.984;2022-09-09T12:41:27;4.25;;;2.20;;
13002;SDS011;6566;57.702;11.984;2022-09-09T12:44:03;6.63;;;2.40;;
13002;SDS011;6566;57.702;11.984;2022-09-09T12:46:44;4.65;;;2.00;;
13002;SDS011;6566;57.702;11.984;2022-09-09T12:52:07;5.07;;;2.20;;
13002;SDS011;6566;57.702;11.984;2022-09-09T12:54:36;3.50;;;1.90;;
13002;SDS011;6566;57.702;11.984;2022-09-09T12:57:04;5.15;;;2.10;;
13002;SDS011;6566;57.702;11.984;2022-09-09T12:59:37;5.28;;;2.35;;
13002;SDS011;6566;57.702;11.984;2022-09-09T13:02:11;5.50;;;2.20;;
13002;SDS011;6566;57.702;11.984;2022-09-09T13:04:38;3.85;;;1.95;;
13002;SDS011;6566;57.702;11.984;2022-09-09T13:07:07;5.78;;;2.10;;
13002;SDS011;6566;57.702;11.984;2022-09-09T13:09:35;2.50;;;2.17;;
13002;SDS011;6566;57.702;11.984;2022-09-09T13:12:02;3.90;;;2.00;;
13002;SDS011;6566;57.702;11.984;2022-09-09T13:14:32;8.63;;;2.50;;
13002;SDS011;6566;57.702;11.984;2022-09-09T13:17:01;5.55;;;2.20;;
13002;SDS011;6566;57.702;11.984;2022-09-09T13:19:30;4.40;;;1.95;;
13002;SDS011;6566;57.702;11.984;2022-09-09T13:21:57;2.72;;;1.90;;
13002;SDS011;6566;57.702;11.984;2022-09-09T13:24:34;7.97;;;2.80;;
13002;SDS011;6566;57.702;11.984;2022-09-09T13:27:04;5.15;;;2.55;;
13002;SDS011;6566;57.702;11.984;2022-09-09T13:29:32;3.72;;;2.00;;
13002;SDS011;6566;57.702;11.984;2022-09-09T13:32:19;7.60;;;2.28;;
13002;SDS011;6566;57.702;11.984;2022-09-09T13:34:55;4.80;;;2.20;;
13002;SDS011;6566;57.702;11.984;2022-09-09T13:37:27;4.50;;;2.17;;
13002;SDS011;6566;57.702;11.984;2022-09-09T13:39:55;6.22;;;2.30;;
13002;SDS011;6566;57.702;11.984;2022-09-09T13:42:27;3.10;;;2.10;;
13002;SDS011;6566;57.702;11.984;2022-09-09T13:44:54;6.22;;;2.30;;
13002;SDS011;6566;57.702;11.984;2022-09-09T13:47:55;4.57;;;2.30;;
13002;SDS011;6566;57.702;11.984;2022-09-09T13:50:24;5.53;;;2.35;;
13002;SDS011;6566;57.702;11.984;2022-09-09T13:52:52;4.20;;;2.60;;
13002;SDS011;6566;57.702;11.984;2022-09-09T13:55:20;4.78;;;2.30;;
13002;SDS011;6566;57.702;11.984;2022-09-09T13:57:54;3.90;;;2.00;;
13002;SDS011;6566;57.702;11.984;2022-09-09T14:00:22;4.18;;;2.47;;
13002;SDS011;6566;57.702;11.984;2022-09-09T14:02:50;3.78;;;2.53;;
13002;SDS011;6566;57.702;11.984;2022-09-09T14:05:17;4.55;;;2.35;;
13002;SDS011;6566;57.702;11.984;2022-09-09T14:07:44;3.55;;;1.92;;
13002;SDS011;6566;57.702;11.984;2022-09-09T14:10:11;5.03;;;2.40;;
13002;SDS011;6566;57.702;11.984;2022-09-09T14:12:37;4.15;;;2.42;;
13002;SDS011;6566;57.702;11.984;2022-09-09T14:15:05;4.50;;;2.47;;
13002;SDS011;6566;57.702;11.984;2022-09-09T14:17:33;7.03;;;2.47;;
13002;SDS011;6566;57.702;11.984;2022-09-09T14:19:59;6.00;;;2.17;;
13002;SDS011;6566;57.702;11.984;2022-09-09T14:22:26;3.70;;;2.10;;
13002;SDS011;6566;57.702;11.984;2022-09-09T14:24:54;5.10;;;2.50;;
13002;SDS011;6566;57.702;11.984;2022-09-09T14:27:19;5.18;;;1.90;;
13002;SDS011;6566;57.702;11.984;2022-09-09T14:29:46;5.68;;;2.40;;
13002;SDS011;6566;57.702;11.984;2022-09-09T14:32:12;6.15;;;2.50;;
13002;SDS011;6566;57.702;11.984;2022-09-09T14:34:39;4.43;;;2.47;;
13002;SDS011;6566;57.702;11.984;2022-09-09T14:37:05;6.32;;;2.20;;
13002;SDS011;6566;57.702;11.984;2022-09-09T14:39:33;5.70;;;2.13;;
13002;SDS011;6566;57.702;11.984;2022-09-09T14:41:59;4.13;;;2.33;;
13002;SDS011;6566;57.702;11.984;2022-09-09T14:44:24;4.95;;;2.17;;
13002;SDS011;6566;57.702;11.984;2022-09-09T14:46:51;6.32;;;2.20;;
13002;SDS011;6566;57.702;11.984;2022-09-09T14:49:20;4.90;;;2.17;;
13002;SDS011;6566;57.702;11.984;2022-09-09T14:51:46;4.82;;;2.20;;
13002;SDS011;6566;57.702;11.984;2022-09-09T14:54:13;4.35;;;2.50;;
13002;SDS011;6566;57.702;11.984;2022-09-09T14:56:40;5.90;;;2.13;;
13002;SDS011;6566;57.702;11.984;2022-09-09T14:59:06;4.90;;;2.47;;
13002;SDS011;6566;57.702;11.984;2022-09-09T15:01:34;4.85;;;2.17;;
13002;SDS011;6566;57.702;11.984;2022-09-09T15:04:01;4.72;;;2.17;;
13002;SDS011;6566;57.702;11.984;2022-09-09T15:06:29;3.83;;;2.20;;
13002;SDS011;6566;57.702;11.984;2022-09-09T15:08:56;2.40;;;1.70;;
13002;SDS011;6566;57.702;11.984;2022-09-09T15:11:31;4.43;;;1.90;;
13002;SDS011;6566;57.702;11.984;2022-09-09T15:14:04;3.13;;;2.10;;
13002;SDS011;6566;57.702;11.984;2022-09-09T15:16:34;2.22;;;1.70;;
13002;SDS011;6566;57.702;11.984;2022-09-09T15:19:01;2.90;;;2.00;;
13002;SDS011;6566;57.702;11.984;2022-09-09T15:21:29;2.90;;;1.98;;
13002;SDS011;6566;57.702;11.984;2022-09-09T15:23:56;4.18;;;2.15;;
13002;SDS011;6566;57.702;11.984;2022-09-09T15:26:23;2.28;;;2.03;;
13002;SDS011;6566;57.702;11.984;2022-09-09T15:28:50;4.45;;;2.40;;
13002;SDS011;6566;57.702;11.984;2022-09-09T15:33:49;2.90;;;2.47;;
13002;SDS011;6566;57.702;11.984;2022-09-09T15:36:28;2.35;;;1.90;;
13002;SDS011;6566;57.702;11.984;2022-09-09T15:38:58;4.90;;;2.30;;
13002;SDS011;6566;57.702;11.984;2022-09-09T15:41:23;4.22;;;1.83;;
13002;SDS011;6566;57.702;11.984;2022-09-09T15:43:51;2.97;;;1.95;;
13002;SDS011;6566;57.702;11.984;2022-09-09T15:46:33;3.17;;;2.00;;
13002;SDS011;6566;57.702;11.984;2022-09-09T15:51:36;1.60;;;1.50;;
13002;SDS011;6566;57.702;11.984;2022-09-09T15:54:03;3.15;;;1.70;;
13002;SDS011;6566;57.702;11.984;2022-09-09T15:56:28;1.98;;;1.50;;
13002;SDS011;6566;57.702;11.984;2022-09-09T15:58:59;1.58;;;1.48;;
13002;SDS011;6566;57.702;11.984;2022-09-09T16:01:26;2.15;;;1.80;;
13002;SDS011;6566;57.702;11.984;2022-09-09T16:03:53;1.98;;;1.63;;
13002;SDS011;6566;57.702;11.984;2022-09-09T16:06:21;4.30;;;2.08;;
13002;SDS011;6566;57.702;11.984;2022-09-09T16:08:49;2.15;;;1.45;;
13002;SDS011;6566;57.702;11.984;2022-09-09T16:11:20;1.77;;;1.58;;
13002;SDS011;6566;57.702;11.984;2022-09-09T16:13:51;2.55;;;1.92;;
13002;SDS011;6566;57.702;11.984;2022-09-09T16:16:19;3.63;;;2.00;;
13002;SDS011;6566;57.702;11.984;2022-09-09T16:18:45;2.95;;;2.00;;
13002;SDS011;6566;57.702;11.984;2022-09-09T16:21:16;1.85;;;1.67;;
13002;SDS011;6566;57.702;11.984;2022-09-09T16:23:42;1.77;;;1.60;;
13002;SDS011;6566;57.702;11.984;2022-09-09T16:26:08;1.92;;;1.73;;
13002;SDS011;6566;57.702;11.984;2022-09-09T16:28:40;1.83;;;1.40;;
13002;SDS011;6566;57.702;11.984;2022-09-09T16:31:08;1.70;;;1.30;;
13002;SDS011;6566;57.702;11.984;2022-09-09T16:33:44;2.22;;;1.42;;
13002;SDS011;6566;57.702;11.984;2022-09-09T16:36:10;2.40;;;1.42;;
13002;SDS011;6566;57.702;11.984;2022-09-09T16:38:37;1.38;;;1.27;;
13002;SDS011;6566;57.702;11.984;2022-09-09T16:41:05;2.63;;;1.60;;
13002;SDS011;6566;57.702;11.984;2022-09-09T16:43:33;1.60;;;1.50;;
13002;SDS011;6566;57.702;11.984;2022-09-09T16:46:00;2.42;;;1.80;;
13002;SDS011;6566;57.702;11.984;2022-09-09T16:48:27;2.05;;;1.40;;
13002;SDS011;6566;57.702;11.984;2022-09-09T16:51:06;2.90;;;1.45;;
13002;SDS011;6566;57.702;11.984;2022-09-09T16:53:33;2.40;;;1.40;;
13002;SDS011;6566;57.702;11.984;2022-09-09T16:56:04;2.47;;;1.20;;
13002;SDS011;6566;57.702;11.984;2022-09-09T16:58:29;1.83;;;1.20;;
13002;SDS011;6566;57.702;11.984;2022-09-09T17:01:05;2.38;;;1.42;;
13002;SDS011;6566;57.702;11.984;2022-09-09T17:03:32;1.83;;;1.30;;
13002;SDS011;6566;57.702;11.984;2022-09-09T17:05:58;2.08;;;1.25;;
13002;SDS011;6566;57.702;11.984;2022-09-09T17:08:30;2.13;;;1.38;;
13002;SDS011;6566;57.702;11.984;2022-09-09T17:10:56;2.42;;;1.30;;
13002;SDS011;6566;57.702;11.984;2022-09-09T17:13:21;2.35;;;1.20;;
13002;SDS011;6566;57.702;11.984;2022-09-09T17:15:47;2.42;;;1.42;;
13002;SDS011;6566;57.702;11.984;2022-09-09T17:18:13;1.95;;;1.30;;
13002;SDS011;6566;57.702;11.984;2022-09-09T17:20:40;2.00;;;1.35;;
13002;SDS011;6566;57.702;11.984;2022-09-09T17:23:08;1.88;;;1.30;;
13002;SDS011;6566;57.702;11.984;2022-09-09T17:25:35;1.92;;;1.40;;